sensor_id;sensor_type;location;lat;lon;timestamp;pressure;altitude;pressure_sealevel;temperature;humidity
69302;BME280;56689;47.842;8.974;2024-01-15T02:47:41;95552.28;;;-2.32;100.00
69302;BME280;56689;47.842;8.974;2024-01-15T02:50:09;95567.78;;;-2.26;100.00
69302;BME280;56689;47.842;8.974;2024-01-15T02:52:36;95554.16;;;-2.71;100.00
69302;BME280;56689;47.842;8.974;2024-01-15T02:55:33;95595.09;;;-2.63;100.00
69302;BME280;56689;47.842;8.974;2024-01-15T02:58:24;95547.41;;;-2.91;100.00
69302;BME280;56689;47.842;8.974;2024-01-15T03:00:51;95569.78;;;-2.83;100.00
69302;BME280;56689;47.842;8.974;2024-01-15T03:03:20;95544.22;;;-3.08;100.00
69302;BME280;56689;47.842;8.974;2024-01-15T03:05:46;95540.72;;;-3.10;100.00
69302;BME280;56689;47.842;8.974;2024-01-15T03:08:14;95564.84;;;-3.00;100.00
69302;BME280;56689;47.842;8.974;2024-01-15T03:10:40;95590.91;;;-2.84;100.00
69302;BME280;56689;47.842;8.974;2024-01-15T03:13:05;95560.56;;;-3.01;100.00
69302;BME280;56689;47.842;8.974;2024-01-15T03:15:31;95581.03;;;-2.97;100.00
69302;BME280;56689;47.842;8.974;2024-01-15T03:17:56;95588.88;;;-2.92;100.00
69302;BME280;56689;47.842;8.974;2024-01-15T03:20:22;95541.44;;;-3.14;100.00
69302;BME280;56689;47.842;8.974;2024-01-15T03:22:47;95587.38;;;-2.87;100.00
69302;BME280;56689;47.842;8.974;2024-01-15T03:25:15;95554.44;;;-3.07;100.00
69302;BME280;56689;47.842;8.974;2024-01-15T03:27:41;95578.56;;;-3.16;100.00
69302;BME280;56689;47.842;8.974;2024-01-15T03:30:07;95537.56;;;-3.46;100.00
69302;BME280;56689;47.842;8.974;2024-01-15T03:32:32;95556.06;;;-3.49;100.00
69302;BME280;56689;47.842;8.974;2024-01-15T03:34:58;95551.88;;;-3.48;100.00
69302;BME280;56689;47.842;8.974;2024-01-15T03:37:23;95539.34;;;-3.44;100.00
69302;BME280;56689;47.842;8.974;2024-01-15T03:39:49;95525.78;;;-3.65;100.00
69302;BME280;56689;47.842;8.974;2024-01-15T03:42:14;95537.78;;;-3.61;100.00
69302;BME280;56689;47.842;8.974;2024-01-15T03:44:44;95529.66;;;-3.73;100.00
69302;BME280;56689;47.842;8.974;2024-01-15T03:47:13;95525.34;;;-3.76;100.00
69302;BME280;56689;47.842;8.974;2024-01-15T03:49:38;95552.25;;;-3.59;100.00
69302;BME280;56689;47.842;8.974;2024-01-15T03:52:07;95530.44;;;-3.55;100.00
69302;BME280;56689;47.842;8.974;2024-01-15T03:54:35;95539.13;;;-3.50;100.00
69302;BME280;56689;47.842;8.974;2024-01-15T03:57:05;95521.03;;;-3.58;100.00
69302;BME280;56689;47.842;8.974;2024-01-15T03:59:31;95543.31;;;-3.50;100.00
69302;BME280;56689;47.842;8.974;2024-01-15T04:01:56;95552.53;;;-3.52;100.00
69302;BME280;56689;47.842;8.974;2024-01-15T04:04:24;95562.41;;;-3.59;100.00
69302;BME280;56689;47.842;8.974;2024-01-15T04:06:49;95556.88;;;-3.50;100.00
69302;BME280;56689;47.842;8.974;2024-01-15T04:09:18;95528.97;;;-3.50;100.00
69302;BME280;56689;47.842;8.974;2024-01-15T04:11:43;95545.28;;;-3.43;100.00
69302;BME280;56689;47.842;8.974;2024-01-15T04:14:09;95545.69;;;-3.34;100.00
69302;BME280;56689;47.842;8.974;2024-01-15T04:16:34;95539.91;;;-3.30;100.00
69302;BME280;56689;47.842;8.974;2024-01-15T04:19:00;95513.63;;;-3.32;100.00
69302;BME280;56689;47.842;8.974;2024-01-15T04:21:28;95539.88;;;-3.32;100.00
69302;BME280;56689;47.842;8.974;2024-01-15T04:23:53;95548.78;;;-3.20;100.00
69302;BME280;56689;47.842;8.974;2024-01-15T04:26:19;95521.19;;;-3.34;100.00
69302;BME280;56689;47.842;8.974;2024-01-15T04:28:52;95557.88;;;-3.05;100.00
69302;BME280;56689;47.842;8.974;2024-01-15T04:31:23;95553.13;;;-2.97;100.00
69302;BME280;56689;47.842;8.974;2024-01-15T04:33:49;95526.50;;;-3.07;100.00
69302;BME280;56689;47.842;8.974;2024-01-15T04:36:17;95546.59;;;-2.90;100.00
69302;BME280;56689;47.842;8.974;2024-01-15T04:38:43;95538.38;;;-2.85;100.00
69302;BME280;56689;47.842;8.974;2024-01-15T04:41:16;95519.72;;;-2.85;100.00
69302;BME280;56689;47.842;8.974;2024-01-15T04:43:41;95531.81;;;-2.80;100.00
69302;BME280;56689;47.842;8.974;2024-01-15T04:46:07;95515.47;;;-2.86;100.00
69302;BME280;56689;47.842;8.974;2024-01-15T04:48:33;95533.63;;;-2.76;100.00
69302;BME280;56689;47.842;8.974;2024-01-15T04:50:59;95533.06;;;-2.68;100.00
69302;BME280;56689;47.842;8.974;2024-01-15T04:53:25;95535.47;;;-2.73;100.00
69302;BME280;56689;47.842;8.974;2024-01-15T04:55:51;95516.56;;;-2.80;100.00
69302;BME280;56689;47.842;8.974;2024-01-15T04:58:16;95541.41;;;-2.72;100.00
69302;BME280;56689;47.842;8.974;2024-01-15T05:00:42;95516.13;;;-2.90;100.00
69302;BME280;56689;47.842;8.974;2024-01-15T05:03:07;95549.13;;;-2.69;100.00
69302;BME280;56689;47.842;8.974;2024-01-15T05:05:33;95518.09;;;-2.83;100.00
69302;BME280;56689;47.842;8.974;2024-01-15T05:07:59;95534.22;;;-2.83;100.00
69302;BME280;56689;47.842;8.974;2024-01-15T05:10:26;95524.44;;;-2.73;100.00
69302;BME280;56689;47.842;8.974;2024-01-15T05:12:55;95544.75;;;-2.51;100.00
69302;BME280;56689;47.842;8.974;2024-01-15T05:15:24;95540.53;;;-2.51;100.00
69302;BME280;56689;47.842;8.974;2024-01-15T05:17:51;95556.31;;;-2.37;100.00
69302;BME280;56689;47.842;8.974;2024-01-15T05:20:17;95533.22;;;-2.43;100.00
69302;BME280;56689;47.842;8.974;2024-01-15T05:22:43;95517.97;;;-2.43;100.00
69302;BME280;56689;47.842;8.974;2024-01-15T05:25:08;95545.16;;;-2.18;100.00
69302;BME280;56689;47.842;8.974;2024-01-15T05:27:34;95523.38;;;-2.34;100.00
69302;BME280;56689;47.842;8.974;2024-01-15T05:30:00;95519.19;;;-2.33;100.00
69302;BME280;56689;47.842;8.974;2024-01-15T05:32:25;95490.25;;;-2.59;100.00
69302;BME280;56689;47.842;8.974;2024-01-15T05:34:51;95510.38;;;-2.41;100.00
69302;BME280;56689;47.842;8.974;2024-01-15T05:37:16;95525.59;;;-2.43;100.00
69302;BME280;56689;47.842;8.974;2024-01-15T05:39:42;95535.00;;;-2.40;100.00
69302;BME280;56689;47.842;8.974;2024-01-15T05:42:07;95529.34;;;-2.33;100.00
69302;BME280;56689;47.842;8.974;2024-01-15T05:44:32;95537.50;;;-2.19;100.00
69302;BME280;56689;47.842;8.974;2024-01-15T05:47:00;95538.22;;;-2.22;100.00
69302;BME280;56689;47.842;8.974;2024-01-15T05:49:26;95497.31;;;-2.28;100.00
69302;BME280;56689;47.842;8.974;2024-01-15T05:51:51;95519.78;;;-2.16;100.00
69302;BME280;56689;47.842;8.974;2024-01-15T05:54:18;95492.00;;;-2.34;100.00
69302;BME280;56689;47.842;8.974;2024-01-15T05:56:47;95503.34;;;-2.26;100.00
69302;BME280;56689;47.842;8.974;2024-01-15T05:59:13;95467.84;;;-2.47;100.00
69302;BME280;56689;47.842;8.974;2024-01-15T06:01:38;95519.78;;;-2.16;100.00
69302;BME280;56689;47.842;8.974;2024-01-15T06:04:04;95484.53;;;-2.31;100.00
69302;BME280;56689;47.842;8.974;2024-01-15T06:06:31;95511.31;;;-2.17;100.00
69302;BME280;56689;47.842;8.974;2024-01-15T06:08:57;95516.47;;;-2.14;100.00
69302;BME280;56689;47.842;8.974;2024-01-15T06:11:30;95482.88;;;-2.29;100.00
69302;BME280;56689;47.842;8.974;2024-01-15T06:13:56;95505.50;;;-2.13;100.00
69302;BME280;56689;47.842;8.974;2024-01-15T06:16:23;95515.13;;;-2.06;100.00
69302;BME280;56689;47.842;8.974;2024-01-15T06:18:49;95502.31;;;-2.07;100.00
69302;BME280;56689;47.842;8.974;2024-01-15T06:21:16;95493.59;;;-2.14;100.00
69302;BME280;56689;47.842;8.974;2024-01-15T06:23:41;95513.31;;;-2.08;100.00
69302;BME280;56689;47.842;8.974;2024-01-15T06:26:11;95499.63;;;-2.12;100.00
69302;BME280;56689;47.842;8.974;2024-01-15T06:28:37;95494.41;;;-2.15;100.00
69302;BME280;56689;47.842;8.974;2024-01-15T06:31:02;95506.44;;;-2.11;100.00
69302;BME280;56689;47.842;8.974;2024-01-15T06:33:28;95506.22;;;-2.17;100.00
69302;BME280;56689;47.842;8.974;2024-01-15T06:35:57;95483.69;;;-2.30;100.00
69302;BME280;56689;47.842;8.974;2024-01-15T06:38:22;95508.94;;;-2.12;100.00
69302;BME280;56689;47.842;8.974;2024-01-15T06:40:51;95481.63;;;-2.18;100.00
69302;BME280;56689;47.842;8.974;2024-01-15T06:43:23;95481.06;;;-2.09;100.00
69302;BME280;56689;47.842;8.974;2024-01-15T06:46:07;95477.84;;;-2.05;100.00
69302;BME280;56689;47.842;8.974;2024-01-15T06:48:35;95476.97;;;-2.06;100.00
69302;BME280;56689;47.842;8.974;2024-01-15T06:51:03;95469.53;;;-2.00;100.00
69302;BME280;56689;47.842;8.974;2024-01-15T06:53:29;95494.75;;;-1.82;100.00
69302;BME280;56689;47.842;8.974;2024-01-15T06:55:57;95475.59;;;-1.96;100.00
69302;BME280;56689;47.842;8.974;2024-01-15T06:58:25;95463.66;;;-1.99;100.00
69302;BME280;56689;47.842;8.974;2024-01-15T07:00:50;95496.00;;;-1.95;100.00
69302;BME280;56689;47.842;8.974;2024-01-15T07:03:16;95493.22;;;-2.01;100.00
69302;BME280;56689;47.842;8.974;2024-01-15T07:05:47;95520.16;;;-1.83;100.00
69302;BME280;56689;47.842;8.974;2024-01-15T07:08:12;95462.50;;;-2.07;100.00
69302;BME280;56689;47.842;8.974;2024-01-15T07:10:43;95493.72;;;-1.87;100.00
69302;BME280;56689;47.842;8.974;2024-01-15T07:13:11;95483.91;;;-2.00;100.00
69302;BME280;56689;47.842;8.974;2024-01-15T07:15:37;95494.84;;;-1.79;100.00
69302;BME280;56689;47.842;8.974;2024-01-15T07:18:06;95473.31;;;-1.88;100.00
69302;BME280;56689;47.842;8.974;2024-01-15T07:20:32;95516.66;;;-1.61;100.00
69302;BME280;56689;47.842;8.974;2024-01-15T07:22:57;95517.69;;;-1.56;100.00
69302;BME280;56689;47.842;8.974;2024-01-15T07:25:25;95451.47;;;-1.83;100.00
69302;BME280;56689;47.842;8.974;2024-01-15T07:27:54;95474.34;;;-1.58;100.00
69302;BME280;56689;47.842;8.974;2024-01-15T07:30:19;95491.88;;;-1.42;100.00
69302;BME280;56689;47.842;8.974;2024-01-15T07:33:23;95496.81;;;-1.21;100.00
69302;BME280;56689;47.842;8.974;2024-01-15T07:35:48;95492.59;;;-1.20;100.00
69302;BME280;56689;47.842;8.974;2024-01-15T07:38:14;95482.31;;;-1.23;100.00
69302;BME280;56689;47.842;8.974;2024-01-15T07:40:40;95499.78;;;-1.08;100.00
69302;BME280;56689;47.842;8.974;2024-01-15T07:43:06;95451.44;;;-1.32;100.00
69302;BME280;56689;47.842;8.974;2024-01-15T07:45:54;95491.09;;;-1.14;100.00
69302;BME280;56689;47.842;8.974;2024-01-15T07:48:20;95465.41;;;-1.21;100.00
69302;BME280;56689;47.842;8.974;2024-01-15T07:51:07;95511.78;;;-1.04;100.00
69302;BME280;56689;47.842;8.974;2024-01-15T07:53:42;95492.25;;;-1.04;100.00
69302;BME280;56689;47.842;8.974;2024-01-15T09:04:55;95459.91;;;-0.21;96.47
69302;BME280;56689;47.842;8.974;2024-01-15T09:07:20;95448.13;;;-0.17;95.23
69302;BME280;56689;47.842;8.974;2024-01-15T09:09:48;95428.66;;;-0.14;94.63
69302;BME280;56689;47.842;8.974;2024-01-15T09:12:16;95451.75;;;-0.09;93.56
69302;BME280;56689;47.842;8.974;2024-01-15T09:14:43;95442.84;;;-0.23;94.07
69302;BME280;56689;47.842;8.974;2024-01-15T09:17:10;95483.19;;;-0.10;95.43
69302;BME280;56689;47.842;8.974;2024-01-15T09:19:35;95454.53;;;-0.32;95.05
69302;BME280;56689;47.842;8.974;2024-01-15T09:22:09;95471.63;;;-0.28;97.00
69302;BME280;56689;47.842;8.974;2024-01-15T09:24:48;95461.44;;;-0.28;97.79
69302;BME280;56689;47.842;8.974;2024-01-15T09:27:40;95518.63;;;0.09;96.61
69302;BME280;56689;47.842;8.974;2024-01-15T09:30:09;95466.00;;;-0.17;94.70
69302;BME280;56689;47.842;8.974;2024-01-15T09:32:40;95486.09;;;0.02;94.39
69302;BME280;56689;47.842;8.974;2024-01-15T09:35:07;95448.53;;;-0.04;93.47
69302;BME280;56689;47.842;8.974;2024-01-15T09:37:45;95490.94;;;0.23;92.91
69302;BME280;56689;47.842;8.974;2024-01-15T09:40:33;95464.13;;;0.07;90.49
69302;BME280;56689;47.842;8.974;2024-01-15T09:43:04;95464.19;;;0.10;89.04
69302;BME280;56689;47.842;8.974;2024-01-15T09:45:40;95480.25;;;0.38;86.59
69302;BME280;56689;47.842;8.974;2024-01-15T09:48:19;95510.88;;;0.69;84.66
69302;BME280;56689;47.842;8.974;2024-01-15T09:50:52;95509.88;;;0.97;84.05
69302;BME280;56689;47.842;8.974;2024-01-15T09:53:38;95503.16;;;1.01;82.23
69302;BME280;56689;47.842;8.974;2024-01-15T09:56:30;95516.72;;;1.34;81.25
69302;BME280;56689;47.842;8.974;2024-01-15T09:59:06;95479.06;;;1.27;79.23
69302;BME280;56689;47.842;8.974;2024-01-15T10:01:45;95457.38;;;1.10;77.66
69302;BME280;56689;47.842;8.974;2024-01-15T10:04:39;95444.50;;;1.07;75.96
69302;BME280;56689;47.842;8.974;2024-01-15T10:07:16;95430.91;;;1.08;76.70
69302;BME280;56689;47.842;8.974;2024-01-15T10:09:48;95446.25;;;1.09;77.39
69302;BME280;56689;47.842;8.974;2024-01-15T10:15:11;95457.13;;;0.99;80.71
69302;BME280;56689;47.842;8.974;2024-01-15T10:17:41;95431.25;;;0.86;80.74
69302;BME280;56689;47.842;8.974;2024-01-15T10:20:11;95448.31;;;0.88;82.69
69302;BME280;56689;47.842;8.974;2024-01-15T10:22:43;95396.38;;;0.53;83.31
69302;BME280;56689;47.842;8.974;2024-01-15T10:25:12;95411.13;;;0.63;83.18
69302;BME280;56689;47.842;8.974;2024-01-15T10:27:44;95408.75;;;0.71;83.40
69302;BME280;56689;47.842;8.974;2024-01-15T10:30:11;95381.91;;;0.52;84.36
69302;BME280;56689;47.842;8.974;2024-01-15T10:32:44;95411.78;;;0.91;82.01
69302;BME280;56689;47.842;8.974;2024-01-15T10:35:33;95386.59;;;0.70;82.49
69302;BME280;56689;47.842;8.974;2024-01-15T10:38:15;95361.94;;;0.72;82.23
69302;BME280;56689;47.842;8.974;2024-01-15T10:41:06;95371.91;;;0.97;81.46
69302;BME280;56689;47.842;8.974;2024-01-15T10:47:15;95360.59;;;1.25;77.29
69302;BME280;56689;47.842;8.974;2024-01-15T10:49:41;95397.16;;;1.63;77.67
69302;BME280;56689;47.842;8.974;2024-01-15T10:52:17;95355.25;;;1.57;77.58
69302;BME280;56689;47.842;8.974;2024-01-15T10:55:15;95408.38;;;1.70;77.76
69302;BME280;56689;47.842;8.974;2024-01-15T15:18:11;95494.13;;;1.51;78.14
69302;BME280;56689;47.842;8.974;2024-01-15T15:21:13;95493.19;;;1.49;77.60
69302;BME280;56689;47.842;8.974;2024-01-15T15:27:59;95503.16;;;1.37;79.53
69302;BME280;56689;47.842;8.974;2024-01-15T15:34:39;95514.84;;;1.26;81.47
69302;BME280;56689;47.842;8.974;2024-01-15T15:37:36;95469.06;;;1.00;79.51
69302;BME280;56689;47.842;8.974;2024-01-15T15:40:52;95518.03;;;1.17;81.54
69302;BME280;56689;47.842;8.974;2024-01-15T15:43:52;95510.97;;;1.07;80.47
